createdAt,value
2022-10-31T00:01:43.236Z,101423.56
2022-10-31T00:04:12.984Z,101379.38
2022-10-31T00:06:42.699Z,101419.19
2022-10-31T00:09:14.043Z,101445.97
2022-10-31T00:11:43.821Z,101446.78
2022-10-31T00:14:16.343Z,101447.72
2022-10-31T00:16:46.071Z,101437.16
2022-10-31T00:19:15.797Z,101455.19
2022-10-31T00:21:45.509Z,101447.47
2022-10-31T00:24:15.344Z,101443.97
2022-10-31T00:26:45.067Z,101435.22
2022-10-31T00:29:17.489Z,101474.91
2022-10-31T00:31:47.313Z,101466.25
2022-10-31T00:34:17.040Z,101475.66
2022-10-31T00:36:46.826Z,101462.66
2022-10-31T00:39:16.897Z,101478.06
2022-10-31T00:41:46.686Z,101477.13
2022-10-31T00:44:19.025Z,101464.34
2022-10-31T00:46:49.881Z,101434.78
2022-10-31T00:49:24.504Z,101449.59
2022-10-31T00:51:54.239Z,101478.91
2022-10-31T00:54:24.022Z,101450.41
2022-10-31T00:56:53.765Z,101494.44
2022-10-31T00:59:26.142Z,101493.66
2022-10-31T01:01:56.020Z,101436.59
2022-10-31T01:04:26.111Z,101495.25
2022-10-31T01:06:55.825Z,101493.53
2022-10-31T01:09:27.272Z,101467.59
2022-10-31T01:11:57.021Z,101454.56
2022-10-31T01:14:29.962Z,101501.25
2022-10-31T01:17:00.939Z,101495.94
2022-10-31T01:19:30.690Z,101501.13
2022-10-31T01:22:00.800Z,101505.34
2022-10-31T01:24:32.762Z,101496.66
2022-10-31T01:27:04.961Z,101504.38
2022-10-31T01:29:39.976Z,101511.25
2022-10-31T01:32:09.683Z,101507.75
2022-10-31T01:34:39.494Z,101501.56
2022-10-31T01:37:09.337Z,101511.75
2022-10-31T01:39:39.154Z,101511.69
2022-10-31T01:42:09.033Z,101501.25
2022-10-31T01:44:57.131Z,101505.66
2022-10-31T01:47:42.556Z,101505.53
2022-10-31T01:50:30.098Z,101514.19
2022-10-31T01:53:01.503Z,101517.53
2022-10-31T01:55:33.841Z,101495.94
2022-10-31T01:58:09.058Z,101520.16
2022-10-31T02:00:42.782Z,101517.56
2022-10-31T02:03:12.780Z,101521.84
2022-10-31T02:05:42.554Z,101515.84
2022-10-31T02:08:19.751Z,101508.22
2022-10-31T02:10:53.510Z,101510.50
2022-10-31T02:16:00.405Z,101487.25
2022-10-31T02:18:34.083Z,101476.00
2022-10-31T02:21:11.015Z,101513.13
2022-10-31T02:24:09.953Z,101492.22
2022-10-31T02:26:56.196Z,101500.84
2022-10-31T02:30:09.774Z,101512.13
2022-10-31T02:32:53.189Z,101508.69
2022-10-31T02:35:32.639Z,101490.66
2022-10-31T02:38:10.995Z,101502.69
2022-10-31T02:40:53.576Z,101499.22
2022-10-31T02:43:48.150Z,101499.84
2022-10-31T02:46:27.140Z,101516.13
2022-10-31T02:49:04.415Z,101486.63
2022-10-31T02:51:34.380Z,101516.84
2022-10-31T02:54:06.342Z,101503.16
2022-10-31T02:56:36.124Z,101503.84
2022-10-31T02:59:07.806Z,101518.47
2022-10-31T03:02:02.924Z,101521.88
2022-10-31T03:04:57.298Z,101522.69
2022-10-31T03:07:32.776Z,101526.91
2022-10-31T03:10:11.393Z,101516.44
2022-10-31T03:12:49.086Z,101501.69
2022-10-31T03:15:26.388Z,101522.56
2022-10-31T03:18:03.596Z,101389.31
2022-10-31T03:20:41.988Z,101529.44
2022-10-31T03:23:17.613Z,101512.13
2022-10-31T03:25:52.701Z,101525.81
2022-10-31T03:28:29.338Z,101520.78
2022-10-31T03:31:04.787Z,101529.22
2022-10-31T03:33:42.520Z,101537.41
2022-10-31T03:36:18.411Z,101538.75
2022-10-31T03:38:50.309Z,101546.50
2022-10-31T03:41:25.442Z,101545.72
2022-10-31T03:44:02.367Z,101547.72
2022-10-31T03:46:32.708Z,101547.75
2022-10-31T03:49:03.417Z,101546.78
2022-10-31T03:51:43.831Z,101557.16
2022-10-31T03:54:21.115Z,101554.50
2022-10-31T03:56:56.004Z,101559.75
2022-10-31T03:59:30.547Z,101563.22
2022-10-31T04:02:06.240Z,101538.19
2022-10-31T04:04:38.292Z,101501.69
2022-10-31T04:07:13.073Z,101558.16
2022-10-31T04:09:47.078Z,101550.38
2022-10-31T04:12:19.546Z,101536.41
2022-10-31T04:15:14.950Z,101543.41
2022-10-31T04:17:47.868Z,101547.75
2022-10-31T04:20:20.189Z,101550.28
2022-10-31T04:22:54.226Z,101555.34
2022-10-31T04:25:24.007Z,101521.47
2022-10-31T04:27:55.813Z,101550.00
2022-10-31T04:30:26.558Z,101544.88
2022-10-31T04:32:56.472Z,101537.91
2022-10-31T04:35:26.337Z,101550.03
2022-10-31T04:38:00.336Z,101546.47
2022-10-31T04:40:30.220Z,101547.34
2022-10-31T04:46:08.753Z,101530.88
2022-10-31T04:48:38.604Z,101541.13
2022-10-31T04:51:10.121Z,101552.34
2022-10-31T04:53:42.757Z,101549.59
2022-10-31T04:56:30.893Z,101557.16
2022-10-31T04:59:07.201Z,101561.47
2022-10-31T05:01:48.557Z,101558.91
2022-10-31T05:04:21.333Z,101541.59
2022-10-31T05:06:51.065Z,101535.44
2022-10-31T05:09:23.455Z,101545.84
2022-10-31T05:11:53.921Z,101554.41
2022-10-31T05:14:48.536Z,101544.78
2022-10-31T05:17:37.373Z,101547.25
2022-10-31T05:20:27.696Z,101535.88
2022-10-31T05:23:12.108Z,101527.19
2022-10-31T05:25:45.299Z,101527.34
2022-10-31T05:28:15.474Z,101522.91
2022-10-31T05:30:45.374Z,101536.81
2022-10-31T05:33:18.409Z,101528.78
2022-10-31T05:35:48.176Z,101540.13
2022-10-31T05:38:36.942Z,101520.03
2022-10-31T05:41:19.545Z,101534.47
2022-10-31T05:43:50.709Z,101537.63
2022-10-31T05:46:24.600Z,101547.66
2022-10-31T05:49:13.560Z,101537.13
2022-10-31T05:52:01.919Z,101534.50
2022-10-31T05:54:46.117Z,101541.50
2022-10-31T05:57:18.557Z,101532.59
2022-10-31T05:59:54.664Z,101535.97
2022-10-31T06:02:26.256Z,101525.63
2022-10-31T06:05:34.783Z,101537.63
2022-10-31T06:08:05.199Z,101528.97
2022-10-31T06:10:36.176Z,101536.97
2022-10-31T06:13:09.140Z,101546.38
2022-10-31T06:15:45.543Z,101546.00
2022-10-31T06:18:16.263Z,101536.59
2022-10-31T06:20:51.565Z,101550.34
2022-10-31T06:23:21.511Z,101540.03
2022-10-31T06:25:56.704Z,101547.09
2022-10-31T06:28:29.097Z,101536.91
2022-10-31T06:31:05.324Z,101547.31
2022-10-31T06:33:36.467Z,101555.97
2022-10-31T06:36:08.705Z,101564.59
2022-10-31T06:38:39.747Z,101528.19
2022-10-31T06:41:12.028Z,101570.63
2022-10-31T06:43:50.094Z,101580.06
2022-10-31T06:46:38.337Z,101570.34
2022-10-31T06:49:28.538Z,101562.50
2022-10-31T06:52:02.759Z,101573.94
2022-10-31T06:54:33.705Z,101537.63
2022-10-31T06:57:03.834Z,101554.88
2022-10-31T06:59:37.434Z,101560.16
2022-10-31T07:02:13.574Z,101586.81
2022-10-31T07:04:45.846Z,101528.84
2022-10-31T07:07:22.302Z,101561.81
2022-10-31T07:09:54.714Z,101578.16
2022-10-31T07:12:38.305Z,101585.72
2022-10-31T07:15:12.853Z,101590.94
2022-10-31T07:17:43.823Z,101575.44
2022-10-31T07:20:14.762Z,101529.47
2022-10-31T07:22:50.736Z,101589.41
2022-10-31T07:25:21.604Z,101601.75
2022-10-31T07:28:08.998Z,101571.31
2022-10-31T07:30:42.101Z,101575.69
2022-10-31T07:33:12.739Z,101607.63
2022-10-31T07:36:06.439Z,101610.13
2022-10-31T07:38:38.126Z,101610.94
2022-10-31T07:41:08.410Z,101616.19
2022-10-31T07:43:44.006Z,101609.50
2022-10-31T07:46:25.897Z,101600.34
2022-10-31T07:49:18.310Z,101607.31
2022-10-31T07:52:12.070Z,101607.72
2022-10-31T07:55:01.695Z,101569.63
2022-10-31T07:57:34.526Z,101580.25
2022-10-31T08:00:04.823Z,101596.94
2022-10-31T08:02:47.233Z,101580.03
2022-10-31T08:05:39.139Z,101575.88
2022-10-31T08:08:32.165Z,101584.53
2022-10-31T08:11:04.437Z,101584.44
2022-10-31T08:13:36.375Z,101582.25
2022-10-31T08:16:08.479Z,101564.19
2022-10-31T08:18:48.810Z,101578.44
2022-10-31T08:21:19.236Z,101547.25
2022-10-31T08:23:52.958Z,101585.72
2022-10-31T08:26:25.422Z,101585.91
2022-10-31T08:28:58.408Z,101586.22
2022-10-31T08:31:34.468Z,101576.81
2022-10-31T08:34:27.980Z,101570.09
2022-10-31T08:37:20.845Z,101584.00
2022-10-31T08:39:55.229Z,101552.28
2022-10-31T08:42:25.572Z,101561.94
2022-10-31T08:44:55.752Z,101544.09
2022-10-31T08:47:26.343Z,101564.97
2022-10-31T08:50:00.756Z,101551.41
2022-10-31T08:52:58.830Z,101581.78
2022-10-31T08:55:21.657Z,101563.75
2022-10-31T08:57:59.294Z,101552.69
2022-10-31T09:00:38.996Z,101558.81
2022-10-31T09:03:19.038Z,101567.66
2022-10-31T09:05:58.255Z,101564.31
2022-10-31T09:08:52.071Z,101511.88
2022-10-31T09:11:23.919Z,101553.16
2022-10-31T09:14:20.842Z,101554.03
2022-10-31T09:17:10.134Z,101555.84
2022-10-31T09:20:16.179Z,101547.38
2022-10-31T09:22:46.045Z,101550.06
2022-10-31T09:25:18.959Z,101553.63
2022-10-31T09:28:01.248Z,101559.78
2022-10-31T09:30:35.833Z,101542.56
2022-10-31T09:33:07.923Z,101556.50
2022-10-31T09:35:37.858Z,101541.13
2022-10-31T09:38:12.293Z,101529.06
2022-10-31T09:40:47.828Z,101536.84
2022-10-31T09:43:23.318Z,101539.44
2022-10-31T09:46:03.991Z,101520.47
2022-10-31T09:48:58.990Z,101515.81
2022-10-31T09:51:48.017Z,101534.53
2022-10-31T09:54:36.043Z,101529.28
2022-10-31T09:57:14.652Z,101531.88
2022-10-31T09:59:49.260Z,101526.00
2022-10-31T10:02:25.446Z,101528.66
2022-10-31T10:05:00.882Z,101536.59
2022-10-31T10:07:43.447Z,101528.91
2022-10-31T10:10:45.525Z,101529.84
2022-10-31T10:13:47.477Z,101535.91
2022-10-31T10:16:48.340Z,101509.22
2022-10-31T10:19:32.235Z,101539.47
2022-10-31T10:22:11.785Z,101537.78
2022-10-31T10:26:42.080Z,101535.09
2022-10-31T10:29:30.614Z,101534.22
2022-10-31T10:32:03.797Z,101499.75
2022-10-31T10:34:40.562Z,101517.94
2022-10-31T10:37:24.368Z,101543.78
2022-10-31T10:39:58.537Z,101526.69
2022-10-31T10:42:44.406Z,101509.50
2022-10-31T10:46:05.389Z,101526.06
2022-10-31T10:48:46.905Z,101526.94
2022-10-31T10:51:54.423Z,101533.81
2022-10-31T10:54:42.334Z,101503.69
2022-10-31T10:57:37.937Z,101520.16
2022-10-31T11:00:20.596Z,101496.03
2022-10-31T11:02:54.460Z,101515.97
2022-10-31T11:05:29.364Z,101515.09
2022-10-31T11:07:59.170Z,101515.94
2022-10-31T11:10:30.301Z,101510.81
2022-10-31T11:13:10.474Z,101509.16
2022-10-31T11:15:55.182Z,101477.31
2022-10-31T11:18:31.009Z,101491.19
2022-10-31T11:21:03.882Z,101493.75
2022-10-31T11:23:35.916Z,101493.78
2022-10-31T11:26:07.624Z,101485.16
2022-10-31T11:28:38.428Z,101483.50
2022-10-31T11:31:11.919Z,101478.38
2022-10-31T11:33:51.496Z,101451.66
2022-10-31T11:36:26.722Z,101487.94
2022-10-31T11:38:58.966Z,101471.56
2022-10-31T11:41:32.770Z,101461.25
2022-10-31T11:44:05.113Z,101453.50
2022-10-31T11:46:39.542Z,101461.25
2022-10-31T11:49:19.102Z,101462.16
2022-10-31T11:51:52.960Z,101467.28
2022-10-31T11:54:26.868Z,101456.97
2022-10-31T11:56:56.749Z,101444.91
2022-10-31T11:59:30.282Z,101447.50
2022-10-31T12:02:04.865Z,101447.53
2022-10-31T12:04:43.928Z,101460.47
2022-10-31T12:07:13.809Z,101432.88
2022-10-31T12:09:45.121Z,101442.38
2022-10-31T12:12:44.602Z,101445.84
2022-10-31T12:15:33.034Z,101438.06
2022-10-31T12:18:35.499Z,101444.06
2022-10-31T12:21:20.864Z,101424.28
2022-10-31T12:24:04.024Z,101435.47
2022-10-31T12:26:40.774Z,101396.72
2022-10-31T12:29:27.201Z,101425.16
2022-10-31T12:32:13.095Z,101415.69
2022-10-31T12:35:09.268Z,101414.81
2022-10-31T12:37:54.754Z,101398.47
2022-10-31T12:40:47.746Z,101401.88
2022-10-31T12:43:33.577Z,101362.28
2022-10-31T12:46:06.190Z,101341.63
2022-10-31T12:48:58.962Z,101367.47
2022-10-31T12:51:41.789Z,101351.13
2022-10-31T12:54:34.202Z,101370.91
2022-10-31T12:57:14.714Z,101358.00
2022-10-31T12:59:48.391Z,101329.56
2022-10-31T13:02:24.260Z,101370.03
2022-10-31T13:04:59.621Z,101370.88
2022-10-31T13:07:34.771Z,101366.56
2022-10-31T13:10:12.854Z,101358.84
2022-10-31T13:12:43.794Z,101351.13
2022-10-31T13:15:21.090Z,101342.50
2022-10-31T13:17:59.647Z,101327.00
2022-10-31T13:20:33.428Z,101332.19
2022-10-31T13:23:29.645Z,101320.97
2022-10-31T13:26:13.193Z,101334.75
2022-10-31T13:28:47.427Z,101303.75
2022-10-31T13:31:18.364Z,101302.91
2022-10-31T13:33:53.843Z,101286.56
2022-10-31T13:36:33.585Z,101298.59
2022-10-31T13:39:12.307Z,101296.00
2022-10-31T13:41:50.734Z,101284.84
2022-10-31T13:44:25.056Z,101278.78
2022-10-31T13:46:56.224Z,101268.47
2022-10-31T13:49:39.559Z,101269.34
2022-10-31T13:52:19.136Z,101267.56
2022-10-31T13:54:56.677Z,101232.31
2022-10-31T13:57:36.723Z,101259.03
2022-10-31T14:00:11.564Z,101262.47
2022-10-31T14:02:51.457Z,101262.47
2022-10-31T14:05:27.705Z,101255.56
2022-10-31T14:07:59.744Z,101230.59
2022-10-31T14:10:34.604Z,101253.84
2022-10-31T14:13:17.573Z,101240.06
2022-10-31T14:15:58.063Z,101255.56
2022-10-31T14:18:32.785Z,101235.78
2022-10-31T14:21:02.689Z,101236.63
2022-10-31T14:23:45.525Z,101241.81
2022-10-31T14:26:26.682Z,101236.63
2022-10-31T14:29:01.915Z,101215.16
2022-10-31T14:31:39.700Z,101239.22
2022-10-31T14:34:25.241Z,101232.31
2022-10-31T14:37:09.331Z,101221.13
2022-10-31T14:39:54.524Z,101222.88
2022-10-31T14:42:40.654Z,101209.97
2022-10-31T14:45:24.659Z,101214.22
2022-10-31T14:48:08.035Z,101228.84
2022-10-31T14:50:47.458Z,101223.72
2022-10-31T14:53:22.177Z,101208.22
2022-10-31T14:55:59.430Z,101205.66
2022-10-31T14:58:39.035Z,101184.16
2022-10-31T15:01:11.861Z,101191.88
2022-10-31T15:04:10.154Z,101188.44
2022-10-31T15:06:45.598Z,101161.78
2022-10-31T15:09:28.547Z,101177.25
2022-10-31T15:11:58.379Z,101170.38
2022-10-31T15:14:30.316Z,101182.41
2022-10-31T15:17:06.683Z,101179.84
2022-10-31T15:19:38.770Z,101164.38
2022-10-31T15:22:13.439Z,101162.66
2022-10-31T15:24:43.392Z,101144.59
2022-10-31T15:27:17.019Z,101143.72
2022-10-31T15:29:54.016Z,101150.59
2022-10-31T15:32:28.883Z,101147.16
2022-10-31T15:34:59.950Z,101138.56
2022-10-31T15:37:31.172Z,101135.13
2022-10-31T15:40:10.940Z,101135.13
2022-10-31T15:42:44.634Z,101137.69
2022-10-31T15:45:23.306Z,101130.81
2022-10-31T15:47:59.749Z,101125.66
2022-10-31T15:50:35.076Z,101122.22
2022-10-31T15:53:08.100Z,101129.09
2022-10-31T15:55:48.830Z,101134.28
2022-10-31T15:58:21.247Z,101130.81
2022-10-31T16:01:01.792Z,101123.09
2022-10-31T16:03:36.880Z,101108.47
2022-10-31T16:06:09.110Z,101123.97
2022-10-31T16:08:40.829Z,101121.38
2022-10-31T16:11:26.183Z,101120.53
2022-10-31T16:14:03.117Z,101119.63
2022-10-31T16:16:36.621Z,101105.91
2022-10-31T16:19:20.664Z,101107.63
2022-10-31T16:21:52.754Z,101102.47
2022-10-31T16:24:27.494Z,101100.75
2022-10-31T16:27:01.890Z,101101.59
2022-10-31T16:29:37.417Z,101091.28
2022-10-31T16:32:08.617Z,101073.25
2022-10-31T16:34:42.066Z,101088.69
2022-10-31T16:37:11.812Z,101085.25
2022-10-31T16:39:43.672Z,101060.34
2022-10-31T16:42:13.980Z,101083.56
2022-10-31T16:44:48.082Z,101070.66
2022-10-31T16:47:20.360Z,101090.44
2022-10-31T16:49:54.570Z,101089.56
2022-10-31T16:52:24.632Z,101083.53
2022-10-31T16:54:55.686Z,101079.28
2022-10-31T16:57:33.417Z,101076.69
2022-10-31T17:00:07.139Z,101068.94
2022-10-31T17:02:37.105Z,101090.44
2022-10-31T17:05:12.314Z,101097.31
2022-10-31T17:07:42.195Z,101081.84
2022-10-31T17:10:15.704Z,101096.44
2022-10-31T17:12:48.367Z,101089.59
2022-10-31T17:15:21.562Z,101084.41
2022-10-31T17:17:55.226Z,101088.72
2022-10-31T17:20:31.378Z,101073.25
2022-10-31T17:23:03.625Z,101083.56
2022-10-31T17:25:35.752Z,101082.69
2022-10-31T17:28:06.915Z,101062.91
2022-10-31T17:30:40.575Z,101078.38
2022-10-31T17:33:12.902Z,101064.59
2022-10-31T17:35:45.746Z,101079.22
2022-10-31T17:38:17.585Z,101075.81
2022-10-31T17:43:38.162Z,101019.06
2022-10-31T17:46:11.762Z,101020.78
2022-10-31T17:48:43.564Z,101059.50
2022-10-31T17:51:19.579Z,101055.22
2022-10-31T17:53:51.366Z,101054.34
2022-10-31T17:56:21.320Z,101046.59
2022-10-31T17:58:53.524Z,101002.75
2022-10-31T18:01:24.644Z,101031.13
2022-10-31T18:03:55.576Z,101043.16
2022-10-31T18:06:29.132Z,101016.50
2022-10-31T18:08:59.901Z,101013.06
2022-10-31T18:11:31.864Z,101026.84
2022-10-31T18:14:02.508Z,101036.28
2022-10-31T18:19:07.634Z,101035.41
2022-10-31T18:21:41.064Z,100999.34
2022-10-31T18:24:12.656Z,101006.22
2022-10-31T18:26:42.812Z,101017.38
2022-10-31T18:29:13.963Z,101027.69
2022-10-31T18:31:48.424Z,100999.31
2022-10-31T18:34:21.991Z,100983.88
2022-10-31T18:36:54.478Z,101004.47
2022-10-31T18:39:25.347Z,100999.31
2022-10-31T18:41:56.505Z,100989.84
2022-10-31T18:44:26.777Z,100951.25
2022-10-31T18:46:57.699Z,100979.59
2022-10-31T18:49:32.644Z,100958.94
2022-10-31T18:52:06.193Z,100974.41
2022-10-31T18:54:37.183Z,100975.28
2022-10-31T18:57:08.051Z,100951.22
2022-10-31T18:59:38.072Z,100957.25
2022-10-31T19:02:10.204Z,100963.25
2022-10-31T19:04:40.213Z,100951.22
2022-10-31T19:07:12.908Z,100927.16
2022-10-31T19:09:42.923Z,100948.63
2022-10-31T19:12:13.846Z,100941.72
2022-10-31T19:14:49.116Z,100951.22
2022-10-31T19:17:19.965Z,100927.16
2022-10-31T19:19:53.765Z,100923.75
2022-10-31T19:22:26.172Z,100920.31
2022-10-31T19:24:56.972Z,100919.44
2022-10-31T19:27:28.237Z,100905.69
2022-10-31T19:29:59.142Z,100922.00
2022-10-31T19:32:30.068Z,100897.13
2022-10-31T19:35:00.926Z,100903.09
2022-10-31T19:37:33.364Z,100876.50
2022-10-31T19:40:03.542Z,100888.53
2022-10-31T19:42:33.563Z,100858.47
2022-10-31T19:45:05.805Z,100854.22
2022-10-31T19:47:37.740Z,100844.75
2022-10-31T19:50:08.462Z,100886.81
2022-10-31T19:52:41.845Z,100865.34
2022-10-31T19:55:13.060Z,100873.09
2022-10-31T19:58:00.952Z,100849.06
2022-10-31T20:00:32.749Z,100889.38
2022-10-31T20:03:03.114Z,100872.25
2022-10-31T20:05:33.752Z,100892.81
2022-10-31T20:08:07.531Z,100871.38
2022-10-31T20:10:37.329Z,100867.97
2022-10-31T20:13:10.722Z,100830.19
2022-10-31T20:15:41.677Z,100847.34
2022-10-31T20:18:14.625Z,100876.53
2022-10-31T20:20:45.511Z,100889.41
2022-10-31T20:23:17.952Z,100881.69
2022-10-31T20:25:51.756Z,100886.84
2022-10-31T20:28:21.669Z,100886.81
2022-10-31T20:30:51.729Z,100862.78
2022-10-31T20:33:25.713Z,100825.00
2022-10-31T20:35:55.570Z,100867.03
2022-10-31T20:38:29.178Z,100885.91
2022-10-31T20:41:02.764Z,100876.50
2022-10-31T20:43:32.864Z,100879.06
2022-10-31T20:46:06.452Z,100867.94
2022-10-31T20:48:38.391Z,100742.63
2022-10-31T20:51:10.878Z,100846.47
2022-10-31T20:53:44.449Z,100874.78
2022-10-31T20:56:19.655Z,100848.19
2022-10-31T20:58:51.363Z,100857.63
2022-10-31T21:01:27.055Z,100850.78
2022-10-31T21:03:58.428Z,100831.00
2022-10-31T21:06:29.386Z,100840.44
2022-10-31T21:09:03.816Z,100854.19
2022-10-31T21:11:35.322Z,100854.19
2022-10-31T21:14:05.255Z,100849.91
2022-10-31T21:16:39.248Z,100823.25
2022-10-31T21:19:10.159Z,100858.47
2022-10-31T21:21:41.037Z,100836.19
2022-10-31T21:24:15.725Z,100844.75
2022-10-31T21:26:50.224Z,100842.16
2022-10-31T21:29:22.427Z,100836.13
2022-10-31T21:31:52.389Z,100830.13
2022-10-31T21:34:23.192Z,100847.34
2022-10-31T21:36:54.050Z,100837.03
2022-10-31T21:39:26.382Z,100841.34
2022-10-31T21:41:57.207Z,100827.56
2022-10-31T21:44:26.982Z,100803.53
2022-10-31T21:46:56.863Z,100823.25
2022-10-31T21:49:26.649Z,100825.03
2022-10-31T21:51:56.508Z,100825.00
2022-10-31T21:54:27.308Z,100816.41
2022-10-31T21:57:00.154Z,100829.28
2022-10-31T21:59:30.108Z,100816.41
2022-10-31T22:02:02.405Z,100810.41
2022-10-31T22:04:32.282Z,100827.59
2022-10-31T22:07:02.120Z,100794.97
2022-10-31T22:09:35.597Z,100770.94
2022-10-31T22:12:06.805Z,100819.00
2022-10-31T22:14:36.718Z,100831.88
2022-10-31T22:17:06.589Z,100833.56
2022-10-31T22:19:36.384Z,100806.09
2022-10-31T22:22:06.311Z,100817.28
2022-10-31T22:24:40.812Z,100840.47
2022-10-31T22:27:12.571Z,100823.25
2022-10-31T22:29:43.406Z,100834.41
2022-10-31T22:32:14.272Z,100798.38
2022-10-31T22:34:45.135Z,100823.28
2022-10-31T22:37:19.494Z,100796.66
2022-10-31T22:39:52.358Z,100811.28
2022-10-31T22:42:22.538Z,100793.25
2022-10-31T22:44:55.716Z,100819.84
2022-10-31T22:47:25.521Z,100763.19
2022-10-31T22:49:57.394Z,100805.25
2022-10-31T22:52:27.237Z,100799.22
2022-10-31T22:54:59.911Z,100791.50
2022-10-31T22:57:30.832Z,100770.91
2022-10-31T23:00:00.861Z,100787.22
2022-10-31T23:02:31.708Z,100806.06
2022-10-31T23:05:01.580Z,100804.34
2022-10-31T23:07:33.213Z,100760.59
2022-10-31T23:10:05.906Z,100743.44
2022-10-31T23:12:49.213Z,100776.88
2022-10-31T23:15:19.347Z,100771.75
2022-10-31T23:17:49.183Z,100762.31
2022-10-31T23:20:19.120Z,100743.41
2022-10-31T23:22:50.983Z,100771.72
2022-10-31T23:25:35.833Z,100762.25
2022-10-31T23:28:07.823Z,100754.47
2022-10-31T23:30:39.699Z,100741.59
2022-10-31T23:33:09.498Z,100752.72
2022-10-31T23:35:40.285Z,100748.47
2022-10-31T23:38:10.098Z,100739.03
2022-10-31T23:40:43.238Z,100746.78
2022-10-31T23:43:15.073Z,100672.13
2022-10-31T23:45:46.185Z,100709.91
2022-10-31T23:48:16.034Z,100701.34
2022-10-31T23:50:49.897Z,100720.22
2022-10-31T23:53:20.821Z,100661.88
2022-10-31T23:55:57.378Z,100705.69
2022-10-31T23:58:27.309Z,100697.09
